Darstellungsparameter: Aktuell verwendete Einstellungen:
Skalierung der Graphiken ... ?
xyx+y,   Skalierungsfaktor:      Skalierung: Modus: x, Faktor: 1
Darstellungszeitraum ... ?
Vom - - bis: - -   Zeitraum: 26.08.2020 - 25.09.2020
Min/Max/Avg-Anzeige ... ?
Zeige MMA aktuell
Zeige MMA Monat
Zeige MMA alles
Zeige --A aktuell
Zeige --A Monat
Zeige --A alles
Keine MMA-Anzeige
MMA:
Keine MMA-Graphiken
MMA-Basis: 26.08.2020 - 25.09.2020
Quicknavigation für Darstellung... ?
Tage:      1T, 2T, 3T, 5T -1T -2T -3T -5T +1T +2T +3T +5T
Wochen: 1W, 2W, 3W -1W -2W -3W +1W +2W +3W
Monate: 1M, 3M, 6M -1M -3M -6M +1M +3M +6M
Jahre:    1J, 3J, 5J, 10J -1J -3J -5J -10J +1J +3J +5J +10J
Nutze für die Darstellung ... ?
Originaldaten oder ...
Mittelwerte Minima Maxima auf...
Stundenbasis Tagesbasis Wochenbasis
Monatsbasis Jahresbasis      Datenbasis: Mittelwerte auf Stundenbasis
Darstellen als:
Statistik (Auto) Statistik J:M      Darstellung:
Zur Graphik,    zurück zur Übersicht aller Sensoren.
 
Tabellarische Datenbersicht: ?
 
Sensor: Nr:Datum:Temp:Abs-Feuchte:Windchill:Wind:
Aussen-T/F 1 26-08-2020 00:00:00 21.03333 C 11.01 g/m*3 21.03 C 5.49167 km/h
2 26-08-2020 01:00:00 21.40833 C 11.91 g/m*3 21.41 C 8.18333 km/h
3 26-08-2020 02:00:00 22.49167 C 12.54 g/m*3 22.49 C 16.79167 km/h
4 26-08-2020 03:00:00 21.85833 C 12.18 g/m*3 21.86 C 23.325 km/h
5 26-08-2020 04:00:00 20.59167 C 11.03 g/m*3 20.59 C 21.7 km/h
6 26-08-2020 05:00:00 20.075 C 10.1 g/m*3 20.08 C 22.51667 km/h
7 26-08-2020 06:00:00 19.58333 C 9.74 g/m*3 19.58 C 21.575 km/h
8 26-08-2020 07:00:00 19.225 C 9.61 g/m*3 19.23 C 20.50833 km/h
9 26-08-2020 08:00:00 19.3 C 9.77 g/m*3 19.3 C 19.44167 km/h
10 26-08-2020 09:00:00 19.41667 C 9.99 g/m*3 19.42 C 18.24167 km/h
11 26-08-2020 10:00:00 19.55 C 10.14 g/m*3 19.55 C 17.83333 km/h
12 26-08-2020 11:00:00 19.74167 C 10.11 g/m*3 19.74 C 20.38333 km/h
13 26-08-2020 12:00:00 20.13333 C 10.57 g/m*3 20.13 C 19.70833 km/h
14 26-08-2020 13:00:00 21.025 C 10.87 g/m*3 21.03 C 21.84167 km/h
15 26-08-2020 14:00:00 21.675 C 10.51 g/m*3 21.68 C 21.04167 km/h
16 26-08-2020 15:00:00 22.49167 C 10.38 g/m*3 22.49 C 21.16667 km/h
17 26-08-2020 16:00:00 22.95833 C 10.24 g/m*3 22.96 C 26.95833 km/h
18 26-08-2020 17:00:00 22.70833 C 10.19 g/m*3 22.71 C 20.23333 km/h
19 26-08-2020 18:00:00 22.35 C 10.18 g/m*3 22.35 C 19.43333 km/h
20 26-08-2020 19:00:00 21.525 C 10.35 g/m*3 21.53 C 14.76667 km/h
21 26-08-2020 20:00:00 20.60833 C 10.65 g/m*3 20.61 C 15.96667 km/h
22 26-08-2020 21:00:00 19.93333 C 10.59 g/m*3 19.93 C 13.83333 km/h
23 26-08-2020 22:00:00 19.41667 C 10.58 g/m*3 19.42 C 6.98333 km/h
24 26-08-2020 23:00:00 18.69167 C 10.68 g/m*3 18.69 C 2.4 km/h
25 27-08-2020 00:00:00 18.05833 C 10.7 g/m*3 18.06 C 4.68333 km/h
Sensor: Nr:Datum:Temp:Abs-Feuchte:Windchill:Wind:
Aussen-T/F 26 27-08-2020 01:00:00 17.31667 C 10.74 g/m*3 17.32 C 2.4 km/h
27 27-08-2020 02:00:00 16.175 C 10.8 g/m*3 16.18 C 2.4 km/h
28 27-08-2020 03:00:00 15.49167 C 10.59 g/m*3 15.49 C 1.6 km/h
29 27-08-2020 04:00:00 14.05833 C 10.34 g/m*3 14.06 C 1.33333 km/h
30 27-08-2020 05:00:00 13.23333 C 10.16 g/m*3 13.23 C 0 km/h
31 27-08-2020 06:00:00 12.80833 C 10.11 g/m*3 12.81 C 0.93333 km/h
32 27-08-2020 07:00:00 12.76667 C 10.18 g/m*3 12.77 C 3.74167 km/h
33 27-08-2020 08:00:00 13.69167 C 10.58 g/m*3 13.69 C 4.43333 km/h
34 27-08-2020 09:00:00 15.975 C 11.09 g/m*3 15.98 C 9.56667 km/h
35 27-08-2020 10:00:00 17.20833 C 11.34 g/m*3 17.21 C 6.3 km/h
36 27-08-2020 11:00:00 18.9 C 11.43 g/m*3 18.9 C 6.575 km/h
37 27-08-2020 12:00:00 19.5 C 11.02 g/m*3 19.5 C 5.21667 km/h
38 27-08-2020 13:00:00 20.125 C 10.85 g/m*3 20.13 C 9.275 km/h
39 27-08-2020 14:00:00 21.30833 C 10.65 g/m*3 21.31 C 7.25833 km/h
40 27-08-2020 15:00:00 22.59167 C 10.29 g/m*3 22.59 C 11.15833 km/h
41 27-08-2020 16:00:00 24.475 C 10.24 g/m*3 24.48 C 10.48333 km/h
42 27-08-2020 17:00:00 25.51667 C 9.95 g/m*3 25.52 C 10.9 km/h
43 27-08-2020 18:00:00 25.83333 C 9.65 g/m*3 25.83 C 9.81667 km/h
44 27-08-2020 19:00:00 24.425 C 10.33 g/m*3 24.43 C 4.15 km/h
45 27-08-2020 20:00:00 19.86667 C 10.19 g/m*3 19.87 C 3.6 km/h
46 27-08-2020 21:00:00 17.48333 C 9.89 g/m*3 17.48 C 2.53333 km/h
47 27-08-2020 22:00:00 17.20833 C 10.11 g/m*3 17.21 C 0 km/h
48 27-08-2020 23:00:00 17.40833 C 11.38 g/m*3 17.41 C 1.20833 km/h
49 28-08-2020 00:00:00 16.45 C 11.64 g/m*3 16.45 C 3.73333 km/h
50 28-08-2020 01:00:00 16.65833 C 11.88 g/m*3 16.66 C 1.46667 km/h
Sensor: Nr:Datum:Temp:Abs-Feuchte:Windchill:Wind:
Aussen-T/F 51 28-08-2020 02:00:00 16.425 C 12.69 g/m*3 16.43 C 3.75 km/h
52 28-08-2020 03:00:00 15.9 C 12.54 g/m*3 15.9 C 1.73333 km/h
53 28-08-2020 04:00:00 15.725 C 12.62 g/m*3 15.73 C 5.61667 km/h
54 28-08-2020 05:00:00 15.65 C 12.67 g/m*3 15.65 C 3.06667 km/h
55 28-08-2020 06:00:00 15.525 C 12.58 g/m*3 15.53 C 4.14167 km/h
56 28-08-2020 07:00:00 15.56667 C 12.61 g/m*3 15.57 C 2.66667 km/h
57 28-08-2020 08:00:00 15.99167 C 12.94 g/m*3 15.99 C 1.73333 km/h
58 28-08-2020 09:00:00 16.78333 C 12.74 g/m*3 16.78 C 3.20833 km/h
59 28-08-2020 10:00:00 18.51667 C 12.23 g/m*3 18.52 C 8.875 km/h
60 28-08-2020 11:00:00 19.95833 C 11.92 g/m*3 19.96 C 11.425 km/h
61 28-08-2020 12:00:00 20.63333 C 11.87 g/m*3 20.63 C 8.89167 km/h
62 28-08-2020 13:00:00 20.40833 C 11.52 g/m*3 20.41 C 10.09167 km/h
63 28-08-2020 14:00:00 20.875 C 11.68 g/m*3 20.88 C 5.88333 km/h
64 28-08-2020 15:00:00 21.38333 C 11.71 g/m*3 21.38 C 6.3 km/h
65 28-08-2020 16:00:00 21.73333 C 11.91 g/m*3 21.73 C 9.53333 km/h
66 28-08-2020 17:00:00 22.425 C 11.45 g/m*3 22.43 C 12.5 km/h
67 28-08-2020 18:00:00 21.525 C 10.42 g/m*3 21.53 C 11.14167 km/h
68 28-08-2020 19:00:00 20.36667 C 9.75 g/m*3 20.37 C 5.225 km/h
69 28-08-2020 20:00:00 18.75 C 10.24 g/m*3 18.75 C 9.39167 km/h
70 28-08-2020 21:00:00 14.975 C 10.65 g/m*3 14.98 C 5.78333 km/h
71 28-08-2020 22:00:00 13.625 C 10.32 g/m*3 13.63 C 3.33333 km/h
72 28-08-2020 23:00:00 12.95 C 10.1 g/m*3 12.95 C 1.46667 km/h
73 29-08-2020 00:00:00 12.475 C 9.99 g/m*3 12.48 C 1.46667 km/h
74 29-08-2020 01:00:00 12.425 C 10 g/m*3 12.43 C 2.93333 km/h
75 29-08-2020 02:00:00 12.05 C 9.84 g/m*3 12.05 C 1.86667 km/h
Sensor: Nr:Datum:Temp:Abs-Feuchte:Windchill:Wind:
Aussen-T/F 76 29-08-2020 03:00:00 11.71667 C 9.69 g/m*3 11.72 C 1.6 km/h
77 29-08-2020 04:00:00 11.725 C 9.76 g/m*3 11.73 C 2.13333 km/h
78 29-08-2020 05:00:00 11.15833 C 9.42 g/m*3 11.16 C 1.33333 km/h
79 29-08-2020 06:00:00 10.96667 C 9.41 g/m*3 10.97 C 0 km/h
80 29-08-2020 07:00:00 11.275 C 9.67 g/m*3 11.28 C 1.46667 km/h
81 29-08-2020 08:00:00 12.3 C 10.34 g/m*3 12.3 C 3.88333 km/h
82 29-08-2020 09:00:00 14.73333 C 10.81 g/m*3 14.73 C 10.75 km/h
83 29-08-2020 10:00:00 16.60833 C 10.97 g/m*3 16.61 C 13.56667 km/h
84 29-08-2020 11:00:00 17.73333 C 11.09 g/m*3 17.73 C 15.16667 km/h
85 29-08-2020 12:00:00 18.84167 C 11.07 g/m*3 18.84 C 16.23333 km/h
86 29-08-2020 13:00:00 19.35 C 10.91 g/m*3 19.35 C 14.09167 km/h
87 29-08-2020 14:00:00 20.28333 C 10.69 g/m*3 20.28 C 15.16667 km/h
88 29-08-2020 15:00:00 21.31667 C 10.32 g/m*3 21.32 C 13.16667 km/h
89 29-08-2020 16:00:00 22.5 C 10.37 g/m*3 22.5 C 9.80833 km/h
90 29-08-2020 17:00:00 22.75 C 10.18 g/m*3 22.75 C 11.55833 km/h
91 29-08-2020 18:00:00 21.88333 C 10.72 g/m*3 21.88 C 2.15 km/h
92 29-08-2020 19:00:00 22.025 C 10.82 g/m*3 22.03 C 3.075 km/h
93 29-08-2020 20:00:00 19.88333 C 11.1 g/m*3 19.88 C 3.20833 km/h
94 29-08-2020 21:00:00 17.675 C 11.4 g/m*3 17.68 C 8.06667 km/h
95 29-08-2020 22:00:00 14.83333 C 11.01 g/m*3 14.83 C 7.25833 km/h
96 29-08-2020 23:00:00 13.36667 C 10.55 g/m*3 13.37 C 4 km/h
97 30-08-2020 00:00:00 13.025 C 10.5 g/m*3 13.03 C 0.66667 km/h
98 30-08-2020 01:00:00 12.325 C 10.13 g/m*3 12.33 C 0.53333 km/h
99 30-08-2020 02:00:00 11.58333 C 9.76 g/m*3 11.58 C 0 km/h
100 30-08-2020 03:00:00 11.06667 C 9.48 g/m*3 11.07 C 0 km/h
Sensor: Nr:Datum:Temp:Abs-Feuchte:Windchill:Wind:
Aussen-T/F 101 30-08-2020 04:00:00 10.675 C 9.32 g/m*3 10.68 C 0 km/h
102 30-08-2020 05:00:00 10.86667 C 9.5 g/m*3 10.87 C 0 km/h
103 30-08-2020 06:00:00 10.66667 C 9.39 g/m*3 10.67 C 0 km/h
104 30-08-2020 07:00:00 11.1 C 9.67 g/m*3 11.1 C 1.2 km/h
105 30-08-2020 08:00:00 11.94167 C 10.2 g/m*3 11.94 C 0.26667 km/h
106 30-08-2020 09:00:00 13.15833 C 11.01 g/m*3 13.16 C 0.66667 km/h
107 30-08-2020 10:00:00 14.78333 C 11.25 g/m*3 14.78 C 6.28333 km/h
108 30-08-2020 11:00:00 16.20833 C 11.42 g/m*3 16.21 C 6.55833 km/h
109 30-08-2020 12:00:00 17.03333 C 11.54 g/m*3 17.03 C 8.06667 km/h
110 30-08-2020 13:00:00 18.01667 C 11.63 g/m*3 18.02 C 6.03333 km/h
111 30-08-2020 14:00:00 18.85 C 11.5 g/m*3 18.85 C 5.75833 km/h
112 30-08-2020 15:00:00 19.89167 C 11.21 g/m*3 19.89 C 7.38333 km/h
113 30-08-2020 16:00:00 21.325 C 10.55 g/m*3 21.33 C 8.06667 km/h
114 30-08-2020 17:00:00 21.625 C 10.34 g/m*3 21.63 C 7.79167 km/h
115 30-08-2020 18:00:00 21.61667 C 9.92 g/m*3 21.62 C 5.5 km/h
116 30-08-2020 19:00:00 20.63333 C 10.39 g/m*3 20.63 C 2.15 km/h
117 30-08-2020 20:00:00 18.9 C 10.81 g/m*3 18.9 C 3.49167 km/h
118 30-08-2020 21:00:00 18.875 C 11.53 g/m*3 18.88 C 4.01667 km/h
119 30-08-2020 22:00:00 17.65833 C 11.53 g/m*3 17.66 C 0 km/h
120 30-08-2020 23:00:00 16.69167 C 11.34 g/m*3 16.69 C 0 km/h
121 31-08-2020 00:00:00 16.06667 C 11.23 g/m*3 16.07 C 0 km/h
122 31-08-2020 01:00:00 15.70833 C 11.37 g/m*3 15.71 C 0 km/h
123 31-08-2020 02:00:00 15.46667 C 11.4 g/m*3 15.47 C 0 km/h
124 31-08-2020 03:00:00 14.65833 C 10.85 g/m*3 14.66 C 0 km/h
125 31-08-2020 04:00:00 13.725 C 10.62 g/m*3 13.73 C 0 km/h
Sensor: Nr:Datum:Temp:Abs-Feuchte:Windchill:Wind:
Aussen-T/F 126 31-08-2020 05:00:00 13.15833 C 10.37 g/m*3 13.16 C 0.26667 km/h
127 31-08-2020 06:00:00 12.70833 C 10.28 g/m*3 12.71 C 0.4 km/h
128 31-08-2020 07:00:00 13.19167 C 10.71 g/m*3 13.19 C 0 km/h
129 31-08-2020 08:00:00 14.24167 C 11.26 g/m*3 14.24 C 0 km/h
130 31-08-2020 09:00:00 15.55 C 11.74 g/m*3 15.55 C 0.4 km/h
131 31-08-2020 10:00:00 16.6 C 12.04 g/m*3 16.6 C 4.69167 km/h
132 31-08-2020 11:00:00 17.70833 C 12.16 g/m*3 17.71 C 6.425 km/h
133 31-08-2020 12:00:00 18.95833 C 12.61 g/m*3 18.96 C 6.975 km/h
134 31-08-2020 13:00:00 19.55 C 12.68 g/m*3 19.55 C 6.69167 km/h
135 31-08-2020 14:00:00 18.38333 C 12.83 g/m*3 18.38 C 7.64167 km/h
136 31-08-2020 15:00:00 16.35 C 12.76 g/m*3 16.35 C 1.2 km/h
137 31-08-2020 16:00:00 16.74167 C 13.17 g/m*3 16.74 C 0 km/h
138 31-08-2020 17:00:00 16.4 C 12.91 g/m*3 16.4 C 0.4 km/h
139 31-08-2020 18:00:00 16.025 C 12.78 g/m*3 16.02 C 0.66667 km/h
140 31-08-2020 19:00:00 15.6 C 12.45 g/m*3 15.6 C 2.26667 km/h
141 31-08-2020 20:00:00 14.91667 C 12 g/m*3 14.92 C 2.13333 km/h
142 31-08-2020 21:00:00 14.56667 C 11.86 g/m*3 14.57 C 0.66667 km/h
143 31-08-2020 22:00:00 14.49167 C 11.84 g/m*3 14.49 C 0.4 km/h
144 31-08-2020 23:00:00 14.45833 C 11.91 g/m*3 14.46 C 0.53333 km/h
145 01-09-2020 00:00:00 14.15 C 11.69 g/m*3 14.15 C 0.26667 km/h
146 01-09-2020 01:00:00 14.06667 C 11.63 g/m*3 14.07 C 0 km/h
147 01-09-2020 02:00:00 13.66667 C 11.34 g/m*3 13.67 C 0.66667 km/h
148 01-09-2020 03:00:00 13.125 C 10.97 g/m*3 13.13 C 2.4 km/h
149 01-09-2020 04:00:00 12.94167 C 10.86 g/m*3 12.94 C 1.33333 km/h
150 01-09-2020 05:00:00 12.55833 C 10.63 g/m*3 12.56 C 2.66667 km/h
Sensor: Nr:Datum:Temp:Abs-Feuchte:Windchill:Wind:
Aussen-T/F 151 01-09-2020 06:00:00 12.14167 C 10.4 g/m*3 12.14 C 2.13333 km/h
152 01-09-2020 07:00:00 12.50833 C 10.67 g/m*3 12.51 C 0 km/h
153 01-09-2020 08:00:00 13.40833 C 11.28 g/m*3 13.41 C 0 km/h
154 01-09-2020 09:00:00 13.875 C 11.61 g/m*3 13.88 C 0 km/h
155 01-09-2020 10:00:00 14.26667 C 11.86 g/m*3 14.27 C 1.33333 km/h
156 01-09-2020 11:00:00 15.35833 C 12.14 g/m*3 15.36 C 2.13333 km/h
157 01-09-2020 12:00:00 17 C 12.36 g/m*3 17 C 1.6 km/h
158 01-09-2020 13:00:00 18.525 C 11.57 g/m*3 18.52 C 6.85833 km/h
159 01-09-2020 14:00:00 19.45833 C 10.77 g/m*3 19.46 C 8.475 km/h
160 01-09-2020 15:00:00 19.99167 C 10.44 g/m*3 19.99 C 4.83333 km/h
161 01-09-2020 16:00:00 18.60833 C 11.8 g/m*3 18.61 C 5.64167 km/h
162 01-09-2020 17:00:00 17.18333 C 11.62 g/m*3 17.18 C 4.43333 km/h
163 01-09-2020 18:00:00 16.375 C 11.76 g/m*3 16.38 C 0.8 km/h
164 01-09-2020 19:00:00 16.5 C 11.99 g/m*3 16.5 C 1.46667 km/h
165 01-09-2020 20:00:00 15.26667 C 11.15 g/m*3 15.27 C 2.53333 km/h
166 01-09-2020 21:00:00 14.15 C 10.8 g/m*3 14.15 C 2 km/h
167 01-09-2020 22:00:00 13.7 C 10.68 g/m*3 13.7 C 0.26667 km/h
168 01-09-2020 23:00:00 13.30833 C 10.61 g/m*3 13.31 C 0 km/h
169 02-09-2020 00:00:00 13.30833 C 10.72 g/m*3 13.31 C 0 km/h
170 02-09-2020 01:00:00 13.2 C 10.68 g/m*3 13.2 C 0.4 km/h
171 02-09-2020 02:00:00 12.90833 C 10.51 g/m*3 12.91 C 0.26667 km/h
172 02-09-2020 03:00:00 12.80833 C 10.53 g/m*3 12.81 C 0.4 km/h
173 02-09-2020 04:00:00 12.70833 C 10.47 g/m*3 12.71 C 0 km/h
174 02-09-2020 05:00:00 12.51667 C 10.41 g/m*3 12.52 C 0 km/h
175 02-09-2020 06:00:00 12.3 C 10.32 g/m*3 12.3 C 0.26667 km/h
Sensor: Nr:Datum:Temp:Abs-Feuchte:Windchill:Wind:
Aussen-T/F 176 02-09-2020 07:00:00 11.59167 C 9.87 g/m*3 11.59 C 0.93333 km/h
177 02-09-2020 08:00:00 11.49167 C 9.85 g/m*3 11.49 C 0.26667 km/h
178 02-09-2020 09:00:00 12.83333 C 10.7 g/m*3 12.83 C 0.26667 km/h
179 02-09-2020 10:00:00 14.63333 C 11.02 g/m*3 14.63 C 1.33333 km/h
180 02-09-2020 11:00:00 16.36667 C 11.09 g/m*3 16.37 C 1.6 km/h
181 02-09-2020 12:00:00 17.19167 C 11.38 g/m*3 17.19 C 1.33333 km/h
182 02-09-2020 13:00:00 18.68333 C 10.54 g/m*3 18.68 C 3.88333 km/h
183 02-09-2020 14:00:00 19.825 C 9.65 g/m*3 19.83 C 5.76667 km/h
184 02-09-2020 15:00:00 21.1 C 9.44 g/m*3 21.1 C 6.43333 km/h
185 02-09-2020 16:00:00 22.025 C 9.43 g/m*3 22.03 C 4.16667 km/h
186 02-09-2020 17:00:00 23.05 C 9.91 g/m*3 23.05 C 3.89167 km/h
187 02-09-2020 18:00:00 19.98333 C 11.31 g/m*3 19.98 C 0.8 km/h
188 02-09-2020 19:00:00 18.55833 C 10.64 g/m*3 18.56 C 3.75833 km/h
189 02-09-2020 20:00:00 16.25 C 9.57 g/m*3 16.25 C 7.39167 km/h
190 02-09-2020 21:00:00 14.8 C 9.7 g/m*3 14.8 C 0 km/h
191 02-09-2020 22:00:00 14.16667 C 10.04 g/m*3 14.17 C 0 km/h
192 02-09-2020 23:00:00 13.5 C 9.67 g/m*3 13.5 C 0 km/h
193 03-09-2020 00:00:00 12.325 C 9.24 g/m*3 12.33 C 0 km/h
194 03-09-2020 01:00:00 11.38333 C 9 g/m*3 11.38 C 0 km/h
195 03-09-2020 02:00:00 10.55833 C 8.75 g/m*3 10.56 C 0 km/h
196 03-09-2020 03:00:00 10.275 C 8.76 g/m*3 10.28 C 0 km/h
197 03-09-2020 04:00:00 10.05833 C 8.73 g/m*3 10.06 C 0 km/h
198 03-09-2020 05:00:00 9.84167 C 8.69 g/m*3 9.84 C 0.26667 km/h
199 03-09-2020 06:00:00 10.14167 C 8.91 g/m*3 10.14 C 0.13333 km/h
200 03-09-2020 07:00:00 10.35833 C 9.04 g/m*3 10.36 C 0.13333 km/h
Sensor: Nr:Datum:Temp:Abs-Feuchte:Windchill:Wind:
Aussen-T/F 201 03-09-2020 08:00:00 11.25833 C 9.47 g/m*3 11.26 C 0.8 km/h
202 03-09-2020 09:00:00 12.76667 C 9.91 g/m*3 12.77 C 1.33333 km/h
203 03-09-2020 10:00:00 14.60833 C 10.5 g/m*3 14.61 C 0.53333 km/h
204 03-09-2020 11:00:00 17.63333 C 11.13 g/m*3 17.63 C 6.85833 km/h
205 03-09-2020 12:00:00 19.33333 C 11.12 g/m*3 19.33 C 8.475 km/h
206 03-09-2020 13:00:00 19.08333 C 11.57 g/m*3 19.08 C 7.39167 km/h
207 03-09-2020 14:00:00 17.73333 C 11.89 g/m*3 17.73 C 4.3 km/h
208 03-09-2020 15:00:00 17.99167 C 12.31 g/m*3 17.99 C 5.225 km/h
209 03-09-2020 16:00:00 16.2 C 12.32 g/m*3 16.2 C 3.475 km/h
210 03-09-2020 17:00:00 15.85833 C 12.52 g/m*3 15.86 C 1.2 km/h
211 03-09-2020 18:00:00 16.11667 C 12.82 g/m*3 16.12 C 1.33333 km/h
212 03-09-2020 19:00:00 15.95 C 12.75 g/m*3 15.95 C 2.53333 km/h
213 03-09-2020 20:00:00 15.5 C 12.43 g/m*3 15.5 C 1.73333 km/h
214 03-09-2020 21:00:00 15.28333 C 12.34 g/m*3 15.28 C 2 km/h
215 03-09-2020 22:00:00 15.63333 C 12.57 g/m*3 15.63 C 0.66667 km/h
216 03-09-2020 23:00:00 15.75833 C 12.62 g/m*3 15.76 C 0.13333 km/h
217 04-09-2020 00:00:00 15.825 C 12.67 g/m*3 15.83 C 0 km/h
218 04-09-2020 01:00:00 15.78333 C 12.64 g/m*3 15.78 C 0.4 km/h
219 04-09-2020 02:00:00 15.84167 C 12.54 g/m*3 15.84 C 1.06667 km/h
220 04-09-2020 03:00:00 16.46667 C 12.85 g/m*3 16.47 C 0.8 km/h
221 04-09-2020 04:00:00 16.7 C 12.81 g/m*3 16.7 C 0 km/h
222 04-09-2020 05:00:00 16.7 C 12.85 g/m*3 16.7 C 0 km/h
223 04-09-2020 06:00:00 16.58333 C 12.7 g/m*3 16.58 C 1.73333 km/h
224 04-09-2020 07:00:00 16.78333 C 12.7 g/m*3 16.78 C 0.8 km/h
225 04-09-2020 08:00:00 17.175 C 13 g/m*3 17.18 C 0.4 km/h
Sensor: Nr:Datum:Temp:Abs-Feuchte:Windchill:Wind:
Aussen-T/F 226 04-09-2020 09:00:00 18.35 C 13.41 g/m*3 18.35 C 1.2 km/h
227 04-09-2020 10:00:00 19.25833 C 13.68 g/m*3 19.26 C 0.13333 km/h
228 04-09-2020 11:00:00 20.375 C 13.81 g/m*3 20.38 C 1.86667 km/h
229 04-09-2020 12:00:00 22.45 C 14.06 g/m*3 22.45 C 10.49167 km/h
230 04-09-2020 13:00:00 24.5 C 14.62 g/m*3 24.5 C 14.23333 km/h
231 04-09-2020 14:00:00 25.675 C 14.66 g/m*3 25.68 C 10.20833 km/h
232 04-09-2020 15:00:00 25.71667 C 14.64 g/m*3 25.72 C 4.94167 km/h
233 04-09-2020 16:00:00 26.34167 C 14.62 g/m*3 26.34 C 2.93333 km/h
234 04-09-2020 17:00:00 28.15833 C 15.38 g/m*3 28.16 C 2.40833 km/h
235 04-09-2020 18:00:00 25.54167 C 15.78 g/m*3 25.54 C 7.80833 km/h
236 04-09-2020 19:00:00 23.40833 C 15.83 g/m*3 23.41 C 4.4 km/h
237 04-09-2020 20:00:00 21.325 C 15.4 g/m*3 21.33 C 1.475 km/h
238 04-09-2020 21:00:00 20.075 C 15.14 g/m*3 20.08 C 2.13333 km/h
239 04-09-2020 22:00:00 19.50833 C 14.64 g/m*3 19.51 C 0.53333 km/h
240 04-09-2020 23:00:00 18.725 C 14.47 g/m*3 18.73 C 0 km/h
241 05-09-2020 00:00:00 17.79167 C 13.8 g/m*3 17.79 C 2 km/h
242 05-09-2020 01:00:00 16.61667 C 13.06 g/m*3 16.62 C 0 km/h
243 05-09-2020 02:00:00 15.875 C 12.68 g/m*3 15.88 C 0 km/h
244 05-09-2020 03:00:00 16.04167 C 12.98 g/m*3 16.04 C 0 km/h
245 05-09-2020 04:00:00 16.50833 C 13.46 g/m*3 16.51 C 0.4 km/h
246 05-09-2020 05:00:00 16.7 C 13.58 g/m*3 16.7 C 0 km/h
247 05-09-2020 06:00:00 16.25833 C 12.62 g/m*3 16.26 C 6.04167 km/h
248 05-09-2020 07:00:00 15.81667 C 11.42 g/m*3 15.82 C 4.00833 km/h
249 05-09-2020 08:00:00 15.50833 C 11.31 g/m*3 15.51 C 2.26667 km/h
250 05-09-2020 09:00:00 15.875 C 11.35 g/m*3 15.88 C 3.475 km/h
Sensor: Nr:Datum:Temp:Abs-Feuchte:Windchill:Wind:
Aussen-T/F 251 05-09-2020 10:00:00 16.64167 C 11.42 g/m*3 16.64 C 6.84167 km/h
252 05-09-2020 11:00:00 17.79167 C 11.57 g/m*3 17.79 C 7.93333 km/h
253 05-09-2020 12:00:00 18.36667 C 11.37 g/m*3 18.37 C 11.15 km/h
254 05-09-2020 13:00:00 18.64167 C 11.31 g/m*3 18.64 C 11.025 km/h
255 05-09-2020 14:00:00 18.825 C 11.17 g/m*3 18.83 C 12.89167 km/h
256 05-09-2020 15:00:00 17.76667 C 11.07 g/m*3 17.77 C 11.3 km/h
257 05-09-2020 16:00:00 18.68333 C 10.68 g/m*3 18.68 C 9.69167 km/h
258 05-09-2020 17:00:00 19.44167 C 10.05 g/m*3 19.44 C 9.425 km/h
259 05-09-2020 18:00:00 20.2 C 9.08 g/m*3 20.2 C 7.91667 km/h
260 05-09-2020 19:00:00 18.6 C 9.23 g/m*3 18.6 C 1.74167 km/h
261 05-09-2020 20:00:00 16.40833 C 9.19 g/m*3 16.41 C 3.60833 km/h
262 05-09-2020 21:00:00 14.35833 C 9.35 g/m*3 14.36 C 3.06667 km/h
263 05-09-2020 22:00:00 13.725 C 9.27 g/m*3 13.73 C 3.6 km/h
264 05-09-2020 23:00:00 13.08333 C 9.22 g/m*3 13.08 C 4.53333 km/h
265 06-09-2020 00:00:00 12.55 C 9.19 g/m*3 12.55 C 2.8 km/h
266 06-09-2020 01:00:00 11.725 C 9.08 g/m*3 11.73 C 0 km/h
267 06-09-2020 02:00:00 10.51667 C 8.62 g/m*3 10.52 C 0.13333 km/h
268 06-09-2020 03:00:00 9.65 C 8.34 g/m*3 9.65 C 0.26667 km/h
269 06-09-2020 04:00:00 9.06667 C 8.17 g/m*3 9.07 C 0.13333 km/h
270 06-09-2020 05:00:00 8.60833 C 8.03 g/m*3 8.61 C 0.4 km/h
271 06-09-2020 06:00:00 8.175 C 7.85 g/m*3 8.18 C 0 km/h
272 06-09-2020 07:00:00 8.03333 C 7.85 g/m*3 8.03 C 0.13333 km/h
273 06-09-2020 08:00:00 8.125 C 7.92 g/m*3 8.13 C 0.53333 km/h
274 06-09-2020 09:00:00 8.96667 C 8.42 g/m*3 8.97 C 1.33333 km/h
275 06-09-2020 10:00:00 10.61667 C 9.31 g/m*3 10.62 C 0.4 km/h
Sensor: Nr:Datum:Temp:Abs-Feuchte:Windchill:Wind:
Aussen-T/F 276 06-09-2020 11:00:00 13.84167 C 9.64 g/m*3 13.84 C 0.53333 km/h
277 06-09-2020 12:00:00 16.43333 C 9.18 g/m*3 16.43 C 4.825 km/h
278 06-09-2020 13:00:00 17.45 C 8.83 g/m*3 17.45 C 4.03333 km/h
279 06-09-2020 14:00:00 18.61667 C 8.8 g/m*3 18.62 C 4.55 km/h
280 06-09-2020 15:00:00 19.04167 C 8.6 g/m*3 19.04 C 6.30833 km/h
281 06-09-2020 16:00:00 18.5 C 8.43 g/m*3 18.5 C 5.50833 km/h
282 06-09-2020 17:00:00 18.56667 C 8.68 g/m*3 18.57 C 7.53333 km/h
283 06-09-2020 18:00:00 19.11667 C 8.76 g/m*3 19.12 C 3.34167 km/h
284 06-09-2020 19:00:00 18.65 C 8.87 g/m*3 18.65 C 2.4 km/h
285 06-09-2020 20:00:00 14.71667 C 8.58 g/m*3 14.72 C 0 km/h
286 06-09-2020 21:00:00 12.83333 C 8.62 g/m*3 12.83 C 0 km/h
287 06-09-2020 22:00:00 12.35 C 8.89 g/m*3 12.35 C 0 km/h
288 06-09-2020 23:00:00 12.575 C 9.02 g/m*3 12.58 C 0.26667 km/h
289 07-09-2020 00:00:00 12.59167 C 9.03 g/m*3 12.59 C 0.13333 km/h
290 07-09-2020 01:00:00 12.19167 C 8.95 g/m*3 12.19 C 0 km/h
291 07-09-2020 02:00:00 10.725 C 8.44 g/m*3 10.73 C 0.13333 km/h
292 07-09-2020 03:00:00 9.475 C 8.1 g/m*3 9.48 C 0.13333 km/h
293 07-09-2020 04:00:00 8.80833 C 7.93 g/m*3 8.81 C 0.13333 km/h
294 07-09-2020 05:00:00 8.24167 C 7.76 g/m*3 8.24 C 0.4 km/h
295 07-09-2020 06:00:00 7.81667 C 7.62 g/m*3 7.82 C 0.53333 km/h
296 07-09-2020 07:00:00 7.6 C 7.57 g/m*3 7.6 C 0 km/h
297 07-09-2020 08:00:00 7.98333 C 7.85 g/m*3 7.98 C 0.26667 km/h
298 07-09-2020 09:00:00 8.95833 C 8.39 g/m*3 8.96 C 0.4 km/h
299 07-09-2020 10:00:00 10.56667 C 9.29 g/m*3 10.57 C 0.93333 km/h
300 07-09-2020 11:00:00 13.66667 C 10.23 g/m*3 13.67 C 1.73333 km/h
Sensor: Nr:Datum:Temp:Abs-Feuchte:Windchill:Wind:
Aussen-T/F 301 07-09-2020 12:00:00 16.475 C 10 g/m*3 16.48 C 3.34167 km/h
302 07-09-2020 13:00:00 18.13333 C 9.44 g/m*3 18.13 C 3.875 km/h
303 07-09-2020 14:00:00 19.43333 C 8.85 g/m*3 19.43 C 6.71667 km/h
304 07-09-2020 15:00:00 20.7 C 8.84 g/m*3 20.7 C 5.475 km/h
305 07-09-2020 16:00:00 21.69167 C 8.87 g/m*3 21.69 C 5.35 km/h
306 07-09-2020 17:00:00 22.85 C 9.02 g/m*3 22.85 C 3.74167 km/h
307 07-09-2020 18:00:00 22.425 C 10.01 g/m*3 22.43 C 0.66667 km/h
308 07-09-2020 19:00:00 20.85 C 10.05 g/m*3 20.85 C 2.53333 km/h
309 07-09-2020 20:00:00 16.58333 C 9.18 g/m*3 16.58 C 3.73333 km/h
310 07-09-2020 21:00:00 14.21667 C 9.18 g/m*3 14.22 C 0.53333 km/h
311 07-09-2020 22:00:00 12.7 C 8.95 g/m*3 12.7 C 0 km/h
312 07-09-2020 23:00:00 11.675 C 8.68 g/m*3 11.68 C 0 km/h
313 08-09-2020 00:00:00 10.875 C 8.49 g/m*3 10.88 C 0 km/h
314 08-09-2020 01:00:00 10.425 C 8.43 g/m*3 10.43 C 0.13333 km/h
315 08-09-2020 02:00:00 9.775 C 8.24 g/m*3 9.78 C 0 km/h
316 08-09-2020 03:00:00 9.25 C 8.1 g/m*3 9.25 C 0 km/h
317 08-09-2020 04:00:00 8.725 C 7.93 g/m*3 8.73 C 0 km/h
318 08-09-2020 05:00:00 8.41667 C 7.86 g/m*3 8.42 C 0 km/h
319 08-09-2020 06:00:00 8.05833 C 7.72 g/m*3 8.06 C 0 km/h
320 08-09-2020 07:00:00 8.125 C 7.83 g/m*3 8.13 C 0 km/h
321 08-09-2020 08:00:00 8.76667 C 8.17 g/m*3 8.77 C 0 km/h
322 08-09-2020 09:00:00 9.725 C 8.68 g/m*3 9.73 C 0.8 km/h
323 08-09-2020 10:00:00 12.20833 C 9.76 g/m*3 12.21 C 2.53333 km/h
324 08-09-2020 11:00:00 17.40833 C 10.33 g/m*3 17.41 C 6.99167 km/h
325 08-09-2020 12:00:00 20.70833 C 10.33 g/m*3 20.71 C 10.89167 km/h
Sensor: Nr:Datum:Temp:Abs-Feuchte:Windchill:Wind:
Aussen-T/F 326 08-09-2020 13:00:00 22.10833 C 10.22 g/m*3 22.11 C 10.48333 km/h
327 08-09-2020 14:00:00 23.06667 C 10.26 g/m*3 23.07 C 9.55833 km/h
328 08-09-2020 15:00:00 24.23333 C 10.27 g/m*3 24.23 C 10.74167 km/h
329 08-09-2020 16:00:00 25.63333 C 10.38 g/m*3 25.63 C 9.14167 km/h
330 08-09-2020 17:00:00 27.58333 C 10.63 g/m*3 27.58 C 9 km/h
331 08-09-2020 18:00:00 27.83333 C 11.18 g/m*3 27.83 C 6.43333 km/h
332 08-09-2020 19:00:00 25.13333 C 12.47 g/m*3 25.13 C 4.95 km/h
333 08-09-2020 20:00:00 20.625 C 12.44 g/m*3 20.63 C 1.46667 km/h
334 08-09-2020 21:00:00 18.66667 C 12.26 g/m*3 18.67 C 2.26667 km/h
335 08-09-2020 22:00:00 17.56667 C 12.04 g/m*3 17.57 C 2.66667 km/h
336 08-09-2020 23:00:00 16.24167 C 11.73 g/m*3 16.24 C 0 km/h
337 09-09-2020 00:00:00 15.15833 C 11.41 g/m*3 15.16 C 0 km/h
338 09-09-2020 01:00:00 14.46667 C 11.23 g/m*3 14.47 C 0 km/h
339 09-09-2020 02:00:00 13.90833 C 10.98 g/m*3 13.91 C 0 km/h
340 09-09-2020 03:00:00 13.35 C 10.76 g/m*3 13.35 C 0 km/h
341 09-09-2020 04:00:00 12.86667 C 10.49 g/m*3 12.87 C 0 km/h
342 09-09-2020 05:00:00 12.46667 C 10.32 g/m*3 12.47 C 0 km/h
343 09-09-2020 06:00:00 12.18333 C 10.2 g/m*3 12.18 C 0 km/h
344 09-09-2020 07:00:00 12.01667 C 10.14 g/m*3 12.02 C 0.13333 km/h
345 09-09-2020 08:00:00 12.41667 C 10.47 g/m*3 12.42 C 1.2 km/h
346 09-09-2020 09:00:00 13.48333 C 11.25 g/m*3 13.48 C 1.6 km/h
347 09-09-2020 10:00:00 16.26667 C 12.88 g/m*3 16.27 C 0.13333 km/h
348 09-09-2020 11:00:00 20.69167 C 13.52 g/m*3 20.69 C 0.53333 km/h
349 09-09-2020 12:00:00 22.36667 C 13.68 g/m*3 22.37 C 3.74167 km/h
350 09-09-2020 13:00:00 22.85 C 13.87 g/m*3 22.85 C 5.225 km/h
Sensor: Nr:Datum:Temp:Abs-Feuchte:Windchill:Wind:
Aussen-T/F 351 09-09-2020 14:00:00 23.69167 C 13.99 g/m*3 23.69 C 7.66667 km/h
352 09-09-2020 15:00:00 24.1 C 14.19 g/m*3 24.1 C 7.38333 km/h
353 09-09-2020 16:00:00 23.925 C 14.06 g/m*3 23.93 C 4.55 km/h
354 09-09-2020 17:00:00 24.525 C 14.16 g/m*3 24.53 C 4.54167 km/h
355 09-09-2020 18:00:00 24.46667 C 14.72 g/m*3 24.47 C 1.20833 km/h
356 09-09-2020 19:00:00 22.70833 C 14.54 g/m*3 22.71 C 0 km/h
357 09-09-2020 20:00:00 21.025 C 14.08 g/m*3 21.03 C 0.13333 km/h
358 09-09-2020 21:00:00 19.75 C 13.58 g/m*3 19.75 C 4.8 km/h
359 09-09-2020 22:00:00 19.65833 C 13.75 g/m*3 19.66 C 1.2 km/h
360 09-09-2020 23:00:00 20.05833 C 13.73 g/m*3 20.06 C 4.00833 km/h
361 10-09-2020 00:00:00 20.18333 C 14.59 g/m*3 20.18 C 10.89167 km/h
362 10-09-2020 01:00:00 18.69167 C 14.51 g/m*3 18.69 C 8.6 km/h
363 10-09-2020 02:00:00 17.675 C 13.63 g/m*3 17.68 C 4.55833 km/h
364 10-09-2020 03:00:00 17.175 C 13.05 g/m*3 17.18 C 2.00833 km/h
365 10-09-2020 04:00:00 16.85833 C 12.55 g/m*3 16.86 C 1.06667 km/h
366 10-09-2020 05:00:00 16.56667 C 11.82 g/m*3 16.57 C 2.13333 km/h
367 10-09-2020 06:00:00 16.08333 C 11.56 g/m*3 16.08 C 3.075 km/h
368 10-09-2020 07:00:00 15.475 C 11.38 g/m*3 15.48 C 5.1 km/h
369 10-09-2020 08:00:00 15.35833 C 11.29 g/m*3 15.36 C 2.4 km/h
370 10-09-2020 09:00:00 15.56667 C 11.39 g/m*3 15.57 C 3.875 km/h
371 10-09-2020 10:00:00 15.93333 C 10.87 g/m*3 15.93 C 6.71667 km/h
372 10-09-2020 11:00:00 16.7 C 10.67 g/m*3 16.7 C 5.36667 km/h
373 10-09-2020 12:00:00 17.83333 C 10.28 g/m*3 17.83 C 7.24167 km/h
374 10-09-2020 13:00:00 18.54167 C 9.52 g/m*3 18.54 C 5.9 km/h
375 10-09-2020 14:00:00 19.66667 C 9.96 g/m*3 19.67 C 5.5 km/h
Sensor: Nr:Datum:Temp:Abs-Feuchte:Windchill:Wind:
Aussen-T/F 376 10-09-2020 15:00:00 20.84167 C 10.16 g/m*3 20.84 C 7.11667 km/h
377 10-09-2020 16:00:00 22.06667 C 10.31 g/m*3 22.07 C 7.65833 km/h
378 10-09-2020 17:00:00 22.73333 C 10.27 g/m*3 22.73 C 8.61667 km/h
379 10-09-2020 18:00:00 22.45 C 10.24 g/m*3 22.45 C 5.225 km/h
380 10-09-2020 19:00:00 20.80833 C 9.8 g/m*3 20.81 C 2 km/h
381 10-09-2020 20:00:00 17.675 C 9.25 g/m*3 17.68 C 1.33333 km/h
382 10-09-2020 21:00:00 15.60833 C 8.98 g/m*3 15.61 C 3.2 km/h
383 10-09-2020 22:00:00 14.325 C 9.01 g/m*3 14.33 C 0.4 km/h
384 10-09-2020 23:00:00 12.7 C 8.75 g/m*3 12.7 C 0 km/h
385 11-09-2020 00:00:00 12.08333 C 8.78 g/m*3 12.08 C 0 km/h
386 11-09-2020 01:00:00 11.95 C 8.78 g/m*3 11.95 C 0 km/h
387 11-09-2020 02:00:00 11.05833 C 8.52 g/m*3 11.06 C 0 km/h
388 11-09-2020 03:00:00 10.23333 C 8.35 g/m*3 10.23 C 0 km/h
389 11-09-2020 04:00:00 9.59167 C 8.23 g/m*3 9.59 C 0 km/h
390 11-09-2020 05:00:00 8.95833 C 8.03 g/m*3 8.96 C 0 km/h
391 11-09-2020 06:00:00 8.43333 C 7.87 g/m*3 8.43 C 0 km/h
392 11-09-2020 07:00:00 8.26667 C 7.88 g/m*3 8.27 C 0 km/h
393 11-09-2020 08:00:00 8.625 C 8.13 g/m*3 8.63 C 0 km/h
394 11-09-2020 09:00:00 9.45833 C 8.62 g/m*3 9.46 C 0 km/h
395 11-09-2020 10:00:00 11.20833 C 9.55 g/m*3 11.21 C 0 km/h
396 11-09-2020 11:00:00 14.025 C 10.22 g/m*3 14.03 C 0.26667 km/h
397 11-09-2020 12:00:00 17.6 C 9.97 g/m*3 17.6 C 2.93333 km/h
398 11-09-2020 13:00:00 19.86667 C 9.7 g/m*3 19.87 C 5.35833 km/h
399 11-09-2020 14:00:00 21.15 C 10.06 g/m*3 21.15 C 5.09167 km/h
400 11-09-2020 15:00:00 22.44167 C 10.4 g/m*3 22.44 C 6.45833 km/h
Sensor: Nr:Datum:Temp:Abs-Feuchte:Windchill:Wind:
Aussen-T/F 401 11-09-2020 16:00:00 23.58333 C 10.59 g/m*3 23.58 C 8.6 km/h
402 11-09-2020 17:00:00 24.6 C 10.8 g/m*3 24.6 C 6.43333 km/h
403 11-09-2020 18:00:00 24.36667 C 11.27 g/m*3 24.37 C 3.075 km/h
404 11-09-2020 19:00:00 21.425 C 11.31 g/m*3 21.43 C 2.80833 km/h
405 11-09-2020 20:00:00 18.3 C 10.65 g/m*3 18.3 C 4.13333 km/h
406 11-09-2020 21:00:00 16.35833 C 10.47 g/m*3 16.36 C 0.53333 km/h
407 11-09-2020 22:00:00 15.04167 C 10.27 g/m*3 15.04 C 0 km/h
408 11-09-2020 23:00:00 13.93333 C 10.07 g/m*3 13.93 C 0 km/h
409 12-09-2020 00:00:00 13.05 C 9.85 g/m*3 13.05 C 0 km/h
410 12-09-2020 01:00:00 12.525 C 9.71 g/m*3 12.53 C 0 km/h
411 12-09-2020 02:00:00 11.975 C 9.53 g/m*3 11.98 C 0 km/h
412 12-09-2020 03:00:00 11.475 C 9.35 g/m*3 11.48 C 0 km/h
413 12-09-2020 04:00:00 10.975 C 9.17 g/m*3 10.98 C 0 km/h
414 12-09-2020 05:00:00 10.525 C 9.03 g/m*3 10.53 C 0 km/h
415 12-09-2020 06:00:00 10.225 C 8.9 g/m*3 10.23 C 0 km/h
416 12-09-2020 07:00:00 10.16667 C 8.94 g/m*3 10.17 C 0 km/h
417 12-09-2020 08:00:00 10.9 C 9.46 g/m*3 10.9 C 0 km/h
418 12-09-2020 09:00:00 12.625 C 10.36 g/m*3 12.63 C 0.26667 km/h
419 12-09-2020 10:00:00 14.675 C 10.94 g/m*3 14.68 C 0.13333 km/h
420 12-09-2020 11:00:00 17.25 C 11.71 g/m*3 17.25 C 0 km/h
421 12-09-2020 12:00:00 20.15833 C 12.27 g/m*3 20.16 C 2.80833 km/h
422 12-09-2020 13:00:00 24.425 C 11.76 g/m*3 24.43 C 11.15833 km/h
423 12-09-2020 14:00:00 24.90833 C 12.29 g/m*3 24.91 C 6.85 km/h
424 12-09-2020 15:00:00 25.61667 C 12.43 g/m*3 25.62 C 8.6 km/h
425 12-09-2020 16:00:00 25.75 C 12.36 g/m*3 25.75 C 10.475 km/h
Sensor: Nr:Datum:Temp:Abs-Feuchte:Windchill:Wind:
Aussen-T/F 426 12-09-2020 17:00:00 26.14167 C 12.76 g/m*3 26.14 C 10.76667 km/h
427 12-09-2020 18:00:00 25.28333 C 12.84 g/m*3 25.28 C 7.23333 km/h
428 12-09-2020 19:00:00 23.03333 C 12.66 g/m*3 23.03 C 1.46667 km/h
429 12-09-2020 20:00:00 19.79167 C 11.85 g/m*3 19.79 C 1.6 km/h
430 12-09-2020 21:00:00 18.49167 C 10.94 g/m*3 18.49 C 1.20833 km/h
431 12-09-2020 22:00:00 17.16667 C 10.49 g/m*3 17.17 C 0.66667 km/h
432 12-09-2020 23:00:00 15.81667 C 10.29 g/m*3 15.82 C 1.06667 km/h
433 13-09-2020 00:00:00 14.36667 C 9.98 g/m*3 14.37 C 0.26667 km/h
434 13-09-2020 01:00:00 13.05 C 9.73 g/m*3 13.05 C 0.13333 km/h
435 13-09-2020 02:00:00 12.375 C 9.55 g/m*3 12.38 C 0.26667 km/h
436 13-09-2020 03:00:00 11.73333 C 9.42 g/m*3 11.73 C 0 km/h
437 13-09-2020 04:00:00 11.35 C 9.32 g/m*3 11.35 C 0 km/h
438 13-09-2020 05:00:00 10.84167 C 9.12 g/m*3 10.84 C 0 km/h
439 13-09-2020 06:00:00 10.35 C 8.92 g/m*3 10.35 C 0 km/h
440 13-09-2020 07:00:00 10.15 C 8.91 g/m*3 10.15 C 0 km/h
441 13-09-2020 08:00:00 10.66667 C 9.31 g/m*3 10.67 C 0.26667 km/h
442 13-09-2020 09:00:00 11.60833 C 9.88 g/m*3 11.61 C 0 km/h
443 13-09-2020 10:00:00 13.1 C 10.67 g/m*3 13.1 C 0 km/h
444 13-09-2020 11:00:00 15.53333 C 11.27 g/m*3 15.53 C 0.4 km/h
445 13-09-2020 12:00:00 19.05833 C 11.98 g/m*3 19.06 C 2.26667 km/h
446 13-09-2020 13:00:00 21.825 C 11.99 g/m*3 21.83 C 0.53333 km/h
447 13-09-2020 14:00:00 23.725 C 11.78 g/m*3 23.73 C 2.81667 km/h
448 13-09-2020 15:00:00 25.85833 C 11.17 g/m*3 25.86 C 4.14167 km/h
449 13-09-2020 16:00:00 26.83333 C 11.13 g/m*3 26.83 C 5.1 km/h
450 13-09-2020 17:00:00 28.81667 C 11.8 g/m*3 28.82 C 3.86667 km/h
Sensor: Nr:Datum:Temp:Abs-Feuchte:Windchill:Wind:
Aussen-T/F 451 13-09-2020 18:00:00 27.46667 C 13.01 g/m*3 27.47 C 2.66667 km/h
452 13-09-2020 19:00:00 23.69167 C 11.87 g/m*3 23.69 C 3.2 km/h
453 13-09-2020 20:00:00 20.53333 C 11.32 g/m*3 20.53 C 1.86667 km/h
454 13-09-2020 21:00:00 18.25 C 10.95 g/m*3 18.25 C 0 km/h
455 13-09-2020 22:00:00 16.55833 C 10.63 g/m*3 16.56 C 0 km/h
456 13-09-2020 23:00:00 15.175 C 10.44 g/m*3 15.18 C 0 km/h
457 14-09-2020 00:00:00 14.325 C 10.28 g/m*3 14.33 C 0 km/h
458 14-09-2020 01:00:00 13.59167 C 10.02 g/m*3 13.59 C 0 km/h
459 14-09-2020 02:00:00 12.875 C 9.83 g/m*3 12.88 C 0 km/h
460 14-09-2020 03:00:00 12.33333 C 9.69 g/m*3 12.33 C 0 km/h
461 14-09-2020 04:00:00 11.64167 C 9.45 g/m*3 11.64 C 0 km/h
462 14-09-2020 05:00:00 11.25833 C 9.33 g/m*3 11.26 C 0 km/h
463 14-09-2020 06:00:00 10.83333 C 9.15 g/m*3 10.83 C 0 km/h
464 14-09-2020 07:00:00 10.725 C 9.19 g/m*3 10.73 C 0 km/h
465 14-09-2020 08:00:00 11.15833 C 9.54 g/m*3 11.16 C 0 km/h
466 14-09-2020 09:00:00 12.125 C 10.2 g/m*3 12.13 C 0 km/h
467 14-09-2020 10:00:00 13.875 C 11.28 g/m*3 13.88 C 0 km/h
468 14-09-2020 11:00:00 17.325 C 12.59 g/m*3 17.33 C 0 km/h
469 14-09-2020 12:00:00 21.75833 C 13.7 g/m*3 21.76 C 1.075 km/h
470 14-09-2020 13:00:00 25.95833 C 13.95 g/m*3 25.96 C 3.33333 km/h
471 14-09-2020 14:00:00 28.11667 C 13.34 g/m*3 28.12 C 4.01667 km/h
472 14-09-2020 15:00:00 29.625 C 11.66 g/m*3 29.63 C 7.11667 km/h
473 14-09-2020 16:00:00 29.875 C 12.2 g/m*3 29.88 C 4.675 km/h
474 14-09-2020 17:00:00 29.775 C 14.18 g/m*3 29.78 C 1.46667 km/h
475 14-09-2020 18:00:00 30.61667 C 13.35 g/m*3 30.62 C 3.06667 km/h
Sensor: Nr:Datum:Temp:Abs-Feuchte:Windchill:Wind:
Aussen-T/F 476 14-09-2020 19:00:00 25.86667 C 11.8 g/m*3 25.87 C 7.39167 km/h
477 14-09-2020 20:00:00 22.39167 C 11.7 g/m*3 22.39 C 2.54167 km/h
478 14-09-2020 21:00:00 19.975 C 12.17 g/m*3 19.98 C 0 km/h
479 14-09-2020 22:00:00 18.525 C 11.98 g/m*3 18.52 C 0 km/h
480 14-09-2020 23:00:00 17.08333 C 11.72 g/m*3 17.08 C 0 km/h
481 15-09-2020 00:00:00 16.23333 C 11.47 g/m*3 16.23 C 0 km/h
482 15-09-2020 01:00:00 15.45833 C 11.28 g/m*3 15.46 C 0 km/h
483 15-09-2020 02:00:00 14.9 C 11.08 g/m*3 14.9 C 0 km/h
484 15-09-2020 03:00:00 14.15833 C 10.84 g/m*3 14.16 C 0 km/h
485 15-09-2020 04:00:00 13.54167 C 10.59 g/m*3 13.54 C 0 km/h
486 15-09-2020 05:00:00 13.10833 C 10.5 g/m*3 13.11 C 0 km/h
487 15-09-2020 06:00:00 12.50833 C 10.19 g/m*3 12.51 C 0 km/h
488 15-09-2020 07:00:00 12.2 C 10.11 g/m*3 12.2 C 0 km/h
489 15-09-2020 08:00:00 12.53333 C 10.43 g/m*3 12.53 C 0 km/h
490 15-09-2020 09:00:00 13.69167 C 11.29 g/m*3 13.69 C 0 km/h
491 15-09-2020 10:00:00 15.39167 C 12.46 g/m*3 15.39 C 0 km/h
492 15-09-2020 11:00:00 18.00833 C 13.23 g/m*3 18.01 C 0 km/h
493 15-09-2020 12:00:00 21.76667 C 14.25 g/m*3 21.77 C 0 km/h
494 15-09-2020 13:00:00 25.79167 C 13.96 g/m*3 25.79 C 1.6 km/h
495 15-09-2020 14:00:00 29.24167 C 12.37 g/m*3 29.24 C 4.13333 km/h
496 15-09-2020 15:00:00 30.65833 C 10.87 g/m*3 30.66 C 5.225 km/h
497 15-09-2020 16:00:00 31.5 C 9.92 g/m*3 31.5 C 4.93333 km/h
498 15-09-2020 17:00:00 33.19167 C 10.43 g/m*3 33.19 C 4.53333 km/h
499 15-09-2020 18:00:00 31.875 C 12.58 g/m*3 31.88 C 3.73333 km/h
500 15-09-2020 19:00:00 27.65833 C 11.92 g/m*3 27.66 C 3.33333 km/h
Sensor: Nr:Datum:Temp:Abs-Feuchte:Windchill:Wind:
Aussen-T/F 501 15-09-2020 20:00:00 24.3 C 11.82 g/m*3 24.3 C 4.4 km/h
502 15-09-2020 21:00:00 22.05833 C 12.2 g/m*3 22.06 C 0.13333 km/h
503 15-09-2020 22:00:00 20.48333 C 12.41 g/m*3 20.48 C 0 km/h
504 15-09-2020 23:00:00 18.90833 C 12.33 g/m*3 18.91 C 0 km/h
505 16-09-2020 00:00:00 18.13333 C 12.04 g/m*3 18.13 C 0 km/h
506 16-09-2020 01:00:00 17.29167 C 11.8 g/m*3 17.29 C 0 km/h
507 16-09-2020 02:00:00 16.225 C 11.64 g/m*3 16.23 C 0 km/h
508 16-09-2020 03:00:00 15.49167 C 11.43 g/m*3 15.49 C 0 km/h
509 16-09-2020 04:00:00 14.95 C 11.31 g/m*3 14.95 C 0 km/h
510 16-09-2020 05:00:00 14.5 C 11.19 g/m*3 14.5 C 0.4 km/h
511 16-09-2020 06:00:00 14.25833 C 11.14 g/m*3 14.26 C 0 km/h
512 16-09-2020 07:00:00 14.1 C 11.15 g/m*3 14.1 C 0.26667 km/h
513 16-09-2020 08:00:00 14.51667 C 11.45 g/m*3 14.52 C 0 km/h
514 16-09-2020 09:00:00 15.54167 C 12.13 g/m*3 15.54 C 0 km/h
515 16-09-2020 10:00:00 18.19167 C 13.13 g/m*3 18.19 C 0.26667 km/h
516 16-09-2020 11:00:00 20.775 C 13.49 g/m*3 20.78 C 0.13333 km/h
517 16-09-2020 12:00:00 23.24167 C 14 g/m*3 23.24 C 0 km/h
518 16-09-2020 13:00:00 24.46667 C 14.33 g/m*3 24.47 C 0.13333 km/h
519 16-09-2020 14:00:00 26.5 C 14.56 g/m*3 26.5 C 1.6 km/h
520 16-09-2020 15:00:00 28.38333 C 14.58 g/m*3 28.38 C 1.46667 km/h
521 16-09-2020 16:00:00 30.15 C 12.08 g/m*3 30.15 C 12.35833 km/h
522 16-09-2020 17:00:00 28.55833 C 14.56 g/m*3 28.56 C 13.96667 km/h
523 16-09-2020 18:00:00 26.775 C 15.19 g/m*3 26.78 C 13.56667 km/h
524 16-09-2020 19:00:00 25.28333 C 15.03 g/m*3 25.28 C 5.63333 km/h
525 16-09-2020 20:00:00 22.91667 C 14.49 g/m*3 22.92 C 2.53333 km/h
Sensor: Nr:Datum:Temp:Abs-Feuchte:Windchill:Wind:
Aussen-T/F 526 16-09-2020 21:00:00 22.29167 C 14.31 g/m*3 22.29 C 4.69167 km/h
527 16-09-2020 22:00:00 22.30833 C 14.01 g/m*3 22.31 C 7.66667 km/h
528 16-09-2020 23:00:00 21.24167 C 13.41 g/m*3 21.24 C 3.75 km/h
529 17-09-2020 00:00:00 20.75 C 13.12 g/m*3 20.75 C 8.05833 km/h
530 17-09-2020 01:00:00 20.09167 C 12.51 g/m*3 20.09 C 6.71667 km/h
531 17-09-2020 02:00:00 18.75 C 12.07 g/m*3 18.75 C 5.23333 km/h
532 17-09-2020 03:00:00 17.31667 C 11.82 g/m*3 17.32 C 2.8 km/h
533 17-09-2020 04:00:00 17.36667 C 11.98 g/m*3 17.37 C 8.74167 km/h
534 17-09-2020 05:00:00 17.125 C 11.71 g/m*3 17.13 C 7.375 km/h
535 17-09-2020 06:00:00 16.86667 C 11.44 g/m*3 16.87 C 6.15833 km/h
536 17-09-2020 07:00:00 16.63333 C 11.36 g/m*3 16.63 C 5.89167 km/h
537 17-09-2020 08:00:00 16.08333 C 10.89 g/m*3 16.08 C 9.425 km/h
538 17-09-2020 09:00:00 15.66667 C 10.46 g/m*3 15.67 C 8.06667 km/h
539 17-09-2020 10:00:00 16.05 C 9.52 g/m*3 16.05 C 6.71667 km/h
540 17-09-2020 11:00:00 16.4 C 9.11 g/m*3 16.4 C 10.48333 km/h
541 17-09-2020 12:00:00 17.575 C 9.16 g/m*3 17.58 C 12.76667 km/h
542 17-09-2020 13:00:00 18.81667 C 8.75 g/m*3 18.82 C 14.23333 km/h
543 17-09-2020 14:00:00 20.15833 C 7.94 g/m*3 20.16 C 13.29167 km/h
544 17-09-2020 15:00:00 20.91667 C 7.64 g/m*3 20.92 C 12.5 km/h
545 17-09-2020 16:00:00 21.61667 C 7.28 g/m*3 21.62 C 14.63333 km/h
546 17-09-2020 17:00:00 22.10833 C 7.36 g/m*3 22.11 C 15.3 km/h
547 17-09-2020 18:00:00 21.83333 C 7.63 g/m*3 21.83 C 10.33333 km/h
548 17-09-2020 19:00:00 19.575 C 8.01 g/m*3 19.58 C 2.40833 km/h
549 17-09-2020 20:00:00 15.91667 C 8.08 g/m*3 15.92 C 1.34167 km/h
550 17-09-2020 21:00:00 14.69167 C 8.1 g/m*3 14.69 C 1.6 km/h
Sensor: Nr:Datum:Temp:Abs-Feuchte:Windchill:Wind:
Aussen-T/F 551 17-09-2020 22:00:00 14.66667 C 8.24 g/m*3 14.67 C 2.00833 km/h
552 17-09-2020 23:00:00 13.575 C 8.15 g/m*3 13.58 C 1.475 km/h
553 18-09-2020 00:00:00 12.5 C 8.11 g/m*3 12.5 C 0.53333 km/h
554 18-09-2020 01:00:00 12.25833 C 8.1 g/m*3 12.26 C 2.41667 km/h
555 18-09-2020 02:00:00 12.55833 C 7.99 g/m*3 12.56 C 3.46667 km/h
556 18-09-2020 03:00:00 10.925 C 7.75 g/m*3 10.93 C 3.46667 km/h
557 18-09-2020 04:00:00 10.14167 C 7.61 g/m*3 10.14 C 4.13333 km/h
558 18-09-2020 05:00:00 9.55833 C 7.49 g/m*3 9.56 C 1.33333 km/h
559 18-09-2020 06:00:00 9.28333 C 7.45 g/m*3 9.28 C 0.53333 km/h
560 18-09-2020 07:00:00 9.18333 C 7.51 g/m*3 9.18 C 1.86667 km/h
561 18-09-2020 08:00:00 10.18333 C 7.93 g/m*3 10.18 C 0 km/h
562 18-09-2020 09:00:00 11.2 C 8.2 g/m*3 11.2 C 1.86667 km/h
563 18-09-2020 10:00:00 13.375 C 8.41 g/m*3 13.38 C 5.21667 km/h
564 18-09-2020 11:00:00 16.19167 C 8.82 g/m*3 16.19 C 8.33333 km/h
565 18-09-2020 12:00:00 18.7 C 9.38 g/m*3 18.7 C 8.6 km/h
566 18-09-2020 13:00:00 21.04167 C 10.18 g/m*3 21.04 C 12.36667 km/h
567 18-09-2020 14:00:00 22.58333 C 10.24 g/m*3 22.58 C 13.83333 km/h
568 18-09-2020 15:00:00 23.04167 C 9.98 g/m*3 23.04 C 13.83333 km/h
569 18-09-2020 16:00:00 23.66667 C 9.91 g/m*3 23.67 C 12.1 km/h
570 18-09-2020 17:00:00 24.73333 C 9.77 g/m*3 24.73 C 8.46667 km/h
571 18-09-2020 18:00:00 24.55 C 9.5 g/m*3 24.55 C 6.58333 km/h
572 18-09-2020 19:00:00 21.19167 C 9.55 g/m*3 21.19 C 4.40833 km/h
573 18-09-2020 20:00:00 16.91667 C 9.06 g/m*3 16.92 C 3.86667 km/h
574 18-09-2020 21:00:00 15.46667 C 8.63 g/m*3 15.47 C 5.06667 km/h
575 18-09-2020 22:00:00 14.61667 C 8.02 g/m*3 14.62 C 0.66667 km/h
Sensor: Nr:Datum:Temp:Abs-Feuchte:Windchill:Wind:
Aussen-T/F 576 18-09-2020 23:00:00 14.05833 C 7.91 g/m*3 14.06 C 2.8 km/h
577 19-09-2020 00:00:00 13.54167 C 7.74 g/m*3 13.54 C 2.53333 km/h
578 19-09-2020 01:00:00 12.625 C 7.61 g/m*3 12.63 C 4 km/h
579 19-09-2020 02:00:00 11.63333 C 7.47 g/m*3 11.63 C 1.6 km/h
580 19-09-2020 03:00:00 10.375 C 7.31 g/m*3 10.38 C 0.93333 km/h
581 19-09-2020 04:00:00 9.625 C 7.21 g/m*3 9.63 C 0 km/h
582 19-09-2020 05:00:00 8.825 C 7.08 g/m*3 8.82 C 0 km/h
583 19-09-2020 06:00:00 8.175 C 7.04 g/m*3 8.18 C 0 km/h
584 19-09-2020 07:00:00 7.68333 C 7.04 g/m*3 7.68 C 0 km/h
585 19-09-2020 08:00:00 7.94167 C 7.32 g/m*3 7.94 C 0 km/h
586 19-09-2020 09:00:00 8.91667 C 7.76 g/m*3 8.92 C 0 km/h
587 19-09-2020 10:00:00 11.41667 C 8.33 g/m*3 11.42 C 0.8 km/h
588 19-09-2020 11:00:00 15.09167 C 8.6 g/m*3 15.09 C 2.53333 km/h
589 19-09-2020 12:00:00 19.15 C 8.7 g/m*3 19.15 C 7.93333 km/h
590 19-09-2020 13:00:00 21.125 C 8.61 g/m*3 21.13 C 6.16667 km/h
591 19-09-2020 14:00:00 23.24167 C 8.63 g/m*3 23.24 C 8.46667 km/h
592 19-09-2020 15:00:00 24.33333 C 8.48 g/m*3 24.33 C 8.31667 km/h
593 19-09-2020 16:00:00 25.29167 C 8.19 g/m*3 25.29 C 9.41667 km/h
594 19-09-2020 17:00:00 26.2 C 8.17 g/m*3 26.2 C 8.34167 km/h
595 19-09-2020 18:00:00 26.39167 C 8.38 g/m*3 26.39 C 3.2 km/h
596 19-09-2020 19:00:00 21.7 C 8.12 g/m*3 21.7 C 2.13333 km/h
597 19-09-2020 20:00:00 17.99167 C 7.84 g/m*3 17.99 C 4.4 km/h
598 19-09-2020 21:00:00 16.35833 C 7.92 g/m*3 16.36 C 4.93333 km/h
599 19-09-2020 22:00:00 15.54167 C 8.16 g/m*3 15.54 C 1.86667 km/h
600 19-09-2020 23:00:00 14.425 C 8.17 g/m*3 14.43 C 0 km/h
Sensor: Nr:Datum:Temp:Abs-Feuchte:Windchill:Wind:
Aussen-T/F 601 20-09-2020 00:00:00 13.7 C 8.25 g/m*3 13.7 C 0.13333 km/h
602 20-09-2020 01:00:00 12.70833 C 8.27 g/m*3 12.71 C 0 km/h
603 20-09-2020 02:00:00 11.76667 C 7.98 g/m*3 11.77 C 0 km/h
604 20-09-2020 03:00:00 10.6 C 7.73 g/m*3 10.6 C 0 km/h
605 20-09-2020 04:00:00 9.84167 C 7.5 g/m*3 9.84 C 0 km/h
606 20-09-2020 05:00:00 9.49167 C 7.6 g/m*3 9.49 C 0 km/h
607 20-09-2020 06:00:00 8.96667 C 7.46 g/m*3 8.97 C 0 km/h
608 20-09-2020 07:00:00 8.3 C 7.32 g/m*3 8.3 C 0 km/h
609 20-09-2020 08:00:00 8.71667 C 7.73 g/m*3 8.72 C 0 km/h
610 20-09-2020 09:00:00 9.625 C 8.21 g/m*3 9.63 C 0 km/h
611 20-09-2020 10:00:00 11.55833 C 9 g/m*3 11.56 C 0 km/h
612 20-09-2020 11:00:00 14.05833 C 9.46 g/m*3 14.06 C 0 km/h
613 20-09-2020 12:00:00 18.15833 C 9.75 g/m*3 18.16 C 1.06667 km/h
614 20-09-2020 13:00:00 21.14167 C 9.27 g/m*3 21.14 C 4.53333 km/h
615 20-09-2020 14:00:00 22.81667 C 8.88 g/m*3 22.82 C 3.6 km/h
616 20-09-2020 15:00:00 22.975 C 9.78 g/m*3 22.98 C 1.33333 km/h
617 20-09-2020 16:00:00 22.65 C 9.75 g/m*3 22.65 C 1.06667 km/h
618 20-09-2020 17:00:00 23.95833 C 9.93 g/m*3 23.96 C 1.86667 km/h
619 20-09-2020 18:00:00 21.43333 C 9.47 g/m*3 21.43 C 5.06667 km/h
620 20-09-2020 19:00:00 18.625 C 8.91 g/m*3 18.63 C 3.6 km/h
621 20-09-2020 20:00:00 15.78333 C 8.29 g/m*3 15.78 C 1.33333 km/h
622 20-09-2020 21:00:00 14.3 C 8.13 g/m*3 14.3 C 0 km/h
623 20-09-2020 22:00:00 13.075 C 8.3 g/m*3 13.08 C 0 km/h
624 20-09-2020 23:00:00 11.68333 C 8.05 g/m*3 11.68 C 0 km/h
625 21-09-2020 00:00:00 10.94167 C 7.88 g/m*3 10.94 C 0 km/h
Sensor: Nr:Datum:Temp:Abs-Feuchte:Windchill:Wind:
Aussen-T/F 626 21-09-2020 01:00:00 10.25833 C 7.8 g/m*3 10.26 C 0 km/h
627 21-09-2020 02:00:00 9.54167 C 7.67 g/m*3 9.54 C 0 km/h
628 21-09-2020 03:00:00 9.03333 C 7.62 g/m*3 9.03 C 0 km/h
629 21-09-2020 04:00:00 8.55 C 7.54 g/m*3 8.55 C 0 km/h
630 21-09-2020 05:00:00 8.15 C 7.44 g/m*3 8.15 C 0 km/h
631 21-09-2020 06:00:00 7.79167 C 7.35 g/m*3 7.79 C 0 km/h
632 21-09-2020 07:00:00 7.34167 C 7.22 g/m*3 7.34 C 0 km/h
633 21-09-2020 08:00:00 7.525 C 7.4 g/m*3 7.53 C 0 km/h
634 21-09-2020 09:00:00 8.475 C 7.84 g/m*3 8.48 C 0 km/h
635 21-09-2020 10:00:00 10.075 C 8.54 g/m*3 10.07 C 0 km/h
636 21-09-2020 11:00:00 13.05833 C 9.27 g/m*3 13.06 C 0 km/h
637 21-09-2020 12:00:00 17.375 C 10.1 g/m*3 17.38 C 0 km/h
638 21-09-2020 13:00:00 20.58333 C 9.88 g/m*3 20.58 C 1.73333 km/h
639 21-09-2020 14:00:00 23.44167 C 9.01 g/m*3 23.44 C 7.78333 km/h
640 21-09-2020 15:00:00 24.26667 C 8.56 g/m*3 24.27 C 5.21667 km/h
641 21-09-2020 16:00:00 24.63333 C 8.44 g/m*3 24.63 C 5.9 km/h
642 21-09-2020 17:00:00 26.25833 C 8.64 g/m*3 26.26 C 2.93333 km/h
643 21-09-2020 18:00:00 25.7 C 9.36 g/m*3 25.7 C 3.06667 km/h
644 21-09-2020 19:00:00 21.13333 C 8.71 g/m*3 21.13 C 5.73333 km/h
645 21-09-2020 20:00:00 17.55833 C 8.53 g/m*3 17.56 C 0.93333 km/h
646 21-09-2020 21:00:00 15.46667 C 8.53 g/m*3 15.47 C 0 km/h
647 21-09-2020 22:00:00 13.98333 C 8.46 g/m*3 13.98 C 0 km/h
648 21-09-2020 23:00:00 12.9 C 8.51 g/m*3 12.9 C 0 km/h
649 22-09-2020 00:00:00 11.80833 C 8.37 g/m*3 11.81 C 0 km/h
650 22-09-2020 01:00:00 11.33333 C 8.3 g/m*3 11.33 C 0 km/h
Sensor: Nr:Datum:Temp:Abs-Feuchte:Windchill:Wind:
Aussen-T/F 651 22-09-2020 02:00:00 10.66667 C 8.11 g/m*3 10.67 C 0 km/h
652 22-09-2020 03:00:00 9.80833 C 7.97 g/m*3 9.81 C 0 km/h
653 22-09-2020 04:00:00 9.34167 C 7.89 g/m*3 9.34 C 0 km/h
654 22-09-2020 05:00:00 8.98333 C 7.85 g/m*3 8.98 C 0 km/h
655 22-09-2020 06:00:00 8.51667 C 7.72 g/m*3 8.52 C 0 km/h
656 22-09-2020 07:00:00 8.2 C 7.65 g/m*3 8.2 C 0 km/h
657 22-09-2020 08:00:00 8.54167 C 7.93 g/m*3 8.54 C 0 km/h
658 22-09-2020 09:00:00 9.45833 C 8.44 g/m*3 9.46 C 0 km/h
659 22-09-2020 10:00:00 11.10833 C 9.2 g/m*3 11.11 C 0 km/h
660 22-09-2020 11:00:00 14.18333 C 10.12 g/m*3 14.18 C 0 km/h
661 22-09-2020 12:00:00 18.30833 C 11.09 g/m*3 18.31 C 0.13333 km/h
662 22-09-2020 13:00:00 22.025 C 10.46 g/m*3 22.03 C 4.29167 km/h
663 22-09-2020 14:00:00 25.39167 C 9.49 g/m*3 25.39 C 11.15833 km/h
664 22-09-2020 15:00:00 26.09167 C 9.07 g/m*3 26.09 C 11.025 km/h
665 22-09-2020 16:00:00 26.51667 C 8.75 g/m*3 26.52 C 11.3 km/h
666 22-09-2020 17:00:00 27.45833 C 9.39 g/m*3 27.46 C 8.85833 km/h
667 22-09-2020 18:00:00 27.34167 C 10.25 g/m*3 27.34 C 4.54167 km/h
668 22-09-2020 19:00:00 22.64167 C 10.15 g/m*3 22.64 C 6.14167 km/h
669 22-09-2020 20:00:00 19.275 C 9.9 g/m*3 19.27 C 4.26667 km/h
670 22-09-2020 21:00:00 17.68333 C 9.7 g/m*3 17.68 C 0.66667 km/h
671 22-09-2020 22:00:00 16.43333 C 9.49 g/m*3 16.43 C 0.66667 km/h
672 22-09-2020 23:00:00 15.40833 C 9.31 g/m*3 15.41 C 0.66667 km/h
673 23-09-2020 00:00:00 14.45833 C 9.15 g/m*3 14.46 C 0.13333 km/h
674 23-09-2020 01:00:00 14.04167 C 9.23 g/m*3 14.04 C 0.53333 km/h
675 23-09-2020 02:00:00 14.49167 C 9.4 g/m*3 14.49 C 0.93333 km/h
Sensor: Nr:Datum:Temp:Abs-Feuchte:Windchill:Wind:
Aussen-T/F 676 23-09-2020 03:00:00 13.925 C 9.36 g/m*3 13.93 C 0 km/h
677 23-09-2020 04:00:00 14.06667 C 9.45 g/m*3 14.07 C 0 km/h
678 23-09-2020 05:00:00 12.775 C 8.94 g/m*3 12.78 C 0.13333 km/h
679 23-09-2020 06:00:00 12.125 C 8.85 g/m*3 12.13 C 0.4 km/h
680 23-09-2020 07:00:00 13.225 C 9.12 g/m*3 13.23 C 1.46667 km/h
681 23-09-2020 08:00:00 14.025 C 9.27 g/m*3 14.03 C 1.33333 km/h
682 23-09-2020 09:00:00 14.29167 C 9.33 g/m*3 14.29 C 3.89167 km/h
683 23-09-2020 10:00:00 17.35833 C 9.01 g/m*3 17.36 C 11.16667 km/h
684 23-09-2020 11:00:00 19.13333 C 9.62 g/m*3 19.13 C 10.35833 km/h
685 23-09-2020 12:00:00 20.29167 C 10.55 g/m*3 20.29 C 14.1 km/h
686 23-09-2020 13:00:00 21.65 C 10.84 g/m*3 21.65 C 11.41667 km/h
687 23-09-2020 14:00:00 23.03333 C 11.07 g/m*3 23.03 C 12.1 km/h
688 23-09-2020 15:00:00 23.40833 C 11.2 g/m*3 23.41 C 11.56667 km/h
689 23-09-2020 16:00:00 23.63333 C 11.24 g/m*3 23.63 C 11.29167 km/h
690 23-09-2020 17:00:00 23.78333 C 11.28 g/m*3 23.78 C 9.93333 km/h
691 23-09-2020 18:00:00 22.60833 C 11.1 g/m*3 22.61 C 5.225 km/h
692 23-09-2020 19:00:00 19.48333 C 11.16 g/m*3 19.48 C 1.46667 km/h
693 23-09-2020 20:00:00 17.35833 C 11.11 g/m*3 17.36 C 1.33333 km/h
694 23-09-2020 21:00:00 17.51667 C 11.47 g/m*3 17.52 C 2.54167 km/h
695 23-09-2020 22:00:00 17.64167 C 11.64 g/m*3 17.64 C 0.53333 km/h
696 23-09-2020 23:00:00 17.50833 C 11.75 g/m*3 17.51 C 1.6 km/h
697 24-09-2020 00:00:00 17.73333 C 11.75 g/m*3 17.73 C 4.15833 km/h
698 24-09-2020 01:00:00 18.28333 C 11.99 g/m*3 18.28 C 4.825 km/h
699 24-09-2020 02:00:00 17.56667 C 12.81 g/m*3 17.57 C 4.825 km/h
700 24-09-2020 03:00:00 16.18333 C 12.66 g/m*3 16.18 C 1.2 km/h
Sensor: Nr:Datum:Temp:Abs-Feuchte:Windchill:Wind:
Aussen-T/F 701 24-09-2020 04:00:00 16.03333 C 12.81 g/m*3 16.03 C 1.86667 km/h
702 24-09-2020 05:00:00 15.95 C 12.75 g/m*3 15.95 C 6.975 km/h
703 24-09-2020 06:00:00 14.54167 C 10.71 g/m*3 14.54 C 10.08333 km/h
704 24-09-2020 07:00:00 12.025 C 9.55 g/m*3 12.03 C 6.56667 km/h
705 24-09-2020 08:00:00 12.25 C 9.62 g/m*3 12.25 C 8.05833 km/h
706 24-09-2020 09:00:00 12.63333 C 9.51 g/m*3 12.63 C 10.88333 km/h
707 24-09-2020 10:00:00 13.7 C 9.32 g/m*3 13.7 C 12.23333 km/h
708 24-09-2020 11:00:00 14.74167 C 9.1 g/m*3 14.74 C 12.63333 km/h
709 24-09-2020 12:00:00 16.88333 C 9.21 g/m*3 16.88 C 11.16667 km/h
710 24-09-2020 13:00:00 17.73333 C 9.06 g/m*3 17.73 C 15.16667 km/h
711 24-09-2020 14:00:00 18.99167 C 9.08 g/m*3 18.99 C 14.36667 km/h
712 24-09-2020 15:00:00 19.575 C 9.29 g/m*3 19.58 C 9.80833 km/h
713 24-09-2020 16:00:00 19.71667 C 9.49 g/m*3 19.72 C 7.25833 km/h
714 24-09-2020 17:00:00 19.775 C 9.88 g/m*3 19.77 C 4.53333 km/h
715 24-09-2020 18:00:00 18.85833 C 10.63 g/m*3 18.86 C 2.14167 km/h
716 24-09-2020 19:00:00 17.05 C 11.02 g/m*3 17.05 C 2.26667 km/h
717 24-09-2020 20:00:00 16.075 C 10.86 g/m*3 16.08 C 2.26667 km/h
718 24-09-2020 21:00:00 15.05 C 10.64 g/m*3 15.05 C 1.2 km/h
719 24-09-2020 22:00:00 14.40833 C 10.66 g/m*3 14.41 C 0.93333 km/h
720 24-09-2020 23:00:00 13.76667 C 10.49 g/m*3 13.77 C 0.93333 km/h
721 25-09-2020 00:00:00 13.675 C 10.62 g/m*3 13.68 C 0.13333 km/h
722 25-09-2020 01:00:00 13.925 C 10.79 g/m*3 13.93 C 0.93333 km/h
723 25-09-2020 02:00:00 13.73333 C 10.52 g/m*3 13.73 C 10.05 km/h
724 25-09-2020 03:00:00 12.15 C 9.83 g/m*3 12.15 C 8.59167 km/h
725 25-09-2020 04:00:00 11.275 C 9.42 g/m*3 11.28 C 3.46667 km/h
Sensor: Nr:Datum:Temp:Abs-Feuchte:Windchill:Wind:
Aussen-T/F 726 25-09-2020 05:00:00 10.76667 C 9.2 g/m*3 10.77 C 4.40833 km/h
727 25-09-2020 06:00:00 10.50833 C 8.98 g/m*3 10.16 C 5.61667 km/h
728 25-09-2020 07:00:00 9.875 C 8.53 g/m*3 9.88 C 4.55833 km/h
729 25-09-2020 08:00:00 9.525 C 8.33 g/m*3 9.53 C 2.40833 km/h
730 25-09-2020 09:00:00 10.25833 C 8.22 g/m*3 10.26 C 2.8 km/h
731 25-09-2020 10:00:00 11.35 C 8.39 g/m*3 11.35 C 3.875 km/h
732 25-09-2020 11:00:00 12.40833 C 8.49 g/m*3 12.41 C 8.6 km/h
733 25-09-2020 12:00:00 13.21667 C 8.35 g/m*3 13.22 C 11.96667 km/h
734 25-09-2020 13:00:00 13.54167 C 8.25 g/m*3 13.54 C 10.88333 km/h
735 25-09-2020 14:00:00 13.03333 C 8.97 g/m*3 13.03 C 3.61667 km/h
736 25-09-2020 15:00:00 13.65 C 9.26 g/m*3 13.65 C 3.6 km/h
737 25-09-2020 16:00:00 14.23333 C 9.1 g/m*3 14.23 C 7.125 km/h
738 25-09-2020 17:00:00 14.25 C 8.79 g/m*3 14.25 C 7.525 km/h
739 25-09-2020 18:00:00 12.89167 C 8.7 g/m*3 12.89 C 9.93333 km/h
740 25-09-2020 19:00:00 11.88333 C 8.54 g/m*3 11.88 C 6.3 km/h
741 25-09-2020 20:00:00 11.75833 C 8.49 g/m*3 11.76 C 6.7 km/h
742 25-09-2020 21:00:00 11.53333 C 8.06 g/m*3 11.53 C 7.50833 km/h
743 25-09-2020 22:00:00 11.425 C 8.07 g/m*3 11.43 C 8.74167 km/h
744 25-09-2020 23:00:00 11.20833 C 8.14 g/m*3 11.21 C 10.35833 km/h

Maximal/Minimal-Werte vom 26.08.2020 - 25.09.2020

Sensor Min Max Avg
Temp
(Aussen-T/F)
7.3 °C
21-09-2020  07:15:00
33.7 °C
15-09-2020  17:35:00
16.68 °C
Abs-Feuchte
(Aussen-T/F)
7.04 g/m*3
19-09-2020  06:00:00
15.83 g/m*3
04-09-2020  19:00:00
10.4 g/m*3
Windchill
(Aussen-T/F)
7.34 C
21-09-2020  07:00:00
33.19 C
15-09-2020  17:00:00
16.65 C

Die Daten stammen von einer Davis Vantage Pro 2 Wetter-Station und werden unter Linux mit der Software wview2wettercgi und aufbereitet. Alle Angaben erfolgen ohne Gewähr für ihre Vollständigkeit oder Richtigkeit.
Kontakt: Rainer Krienke krienke@uni-koblenz.de . Meine Webseiten an der Uni Koblenz oder privat.
Version: $Revision: 0.78 $